Time;durP1;ratioP1;P1;durP2;ratioP2;P2;SDS_P1;SDS_P2;PMS_P1;PMS_P2;Temp;Humidity;BMP_temperature;BMP_pressure;BME280_temperature;BME280_humidity;BME280_pressure;Samples;Min_cycle;Max_cycle;Signal;HPM_P1;HPM_P2
2022/07/05 00:00:52;;;;;;;5.22;2.80;;;;;;;;;;5135322;27;20031;-69
2022/07/05 00:03:18;;;;;;;6.78;3.45;;;;;;;;;;5136077;27;20134;-69
2022/07/05 00:05:44;;;;;;;7.50;3.33;;;;;;;;;;5137120;27;20077;-69
2022/07/05 00:08:11;;;;;;;5.53;3.13;;;;;;;;;;5135149;27;20047;-69
2022/07/05 00:10:37;;;;;;;5.35;3.30;;;;;;;;;;5135606;27;20049;-69
2022/07/05 00:13:04;;;;;;;4.90;3.22;;;;;;;;;;5136326;27;20082;-69
2022/07/05 00:15:30;;;;;;;5.43;3.20;;;;;;;;;;5136729;27;20043;-69
2022/07/05 00:17:58;;;;;;;3.80;3.00;;;;;;;;;;5137246;27;20039;-69
2022/07/05 00:20:25;;;;;;;4.47;2.95;;;;;;;;;;5135932;27;20046;-69
2022/07/05 00:22:52;;;;;;;2.90;2.20;;;;;;;;;;5134336;27;20087;-69
2022/07/05 00:25:18;;;;;;;4.03;2.55;;;;;;;;;;5132291;27;20047;-69
2022/07/05 00:27:44;;;;;;;3.50;2.50;;;;;;;;;;5115641;28;20505;-69
2022/07/05 00:30:11;;;;;;;5.70;3.13;;;;;;;;;;5114908;28;20074;-69
2022/07/05 00:32:38;;;;;;;5.15;3.03;;;;;;;;;;5115412;28;20031;-69
2022/07/05 00:35:05;;;;;;;6.72;3.70;;;;;;;;;;5113102;28;20040;-69
2022/07/05 00:37:32;;;;;;;4.35;3.67;;;;;;;;;;5113598;28;20375;-69
2022/07/05 00:39:58;;;;;;;5.05;3.50;;;;;;;;;;5113986;28;20104;-69
2022/07/05 00:42:25;;;;;;;4.65;3.60;;;;;;;;;;5115160;28;20099;-69
2022/07/05 00:44:51;;;;;;;5.25;3.70;;;;;;;;;;5115501;28;20040;-69
2022/07/05 00:47:18;;;;;;;4.88;3.25;;;;;;;;;;5114243;28;20048;-69
2022/07/05 00:49:45;;;;;;;6.80;3.58;;;;;;;;;;5114319;28;20043;-69
2022/07/05 00:52:12;;;;;;;6.25;3.80;;;;;;;;;;5113182;28;20044;-69
2022/07/05 00:54:39;;;;;;;5.38;3.47;;;;;;;;;;5096511;28;20035;-69
2022/07/05 00:57:08;;;;;;;6.47;3.10;;;;;;;;;;5114579;28;20067;-69
2022/07/05 00:59:35;;;;;;;5.60;3.63;;;;;;;;;;5112451;28;20039;-69
2022/07/05 01:02:02;;;;;;;5.97;4.00;;;;;;;;;;5113348;28;20680;-69
2022/07/05 01:04:28;;;;;;;4.25;3.67;;;;;;;;;;5114178;28;20264;-69
2022/07/05 01:06:54;;;;;;;5.60;3.95;;;;;;;;;;5114540;28;20044;-69
2022/07/05 01:09:20;;;;;;;6.05;3.47;;;;;;;;;;5115662;28;20035;-69
2022/07/05 01:11:48;;;;;;;5.30;3.70;;;;;;;;;;5115508;28;20035;-69
2022/07/05 01:14:16;;;;;;;6.85;3.25;;;;;;;;;;5113165;28;20067;-69
2022/07/05 01:16:43;;;;;;;7.10;3.70;;;;;;;;;;5114870;28;20043;-69
2022/07/05 01:19:12;;;;;;;6.22;3.63;;;;;;;;;;5114706;28;20472;-69
2022/07/05 01:21:42;;;;;;;5.15;3.50;;;;;;;;;;5114405;28;20036;-69
2022/07/05 01:24:09;;;;;;;5.70;3.33;;;;;;;;;;5112726;28;20043;-69
2022/07/05 01:26:35;;;;;;;5.28;3.38;;;;;;;;;;5114610;28;20382;-69
2022/07/05 01:29:02;;;;;;;5.25;3.65;;;;;;;;;;5114729;28;20087;-69
2022/07/05 01:31:30;;;;;;;6.63;3.55;;;;;;;;;;5114552;28;20064;-69
2022/07/05 01:33:57;;;;;;;6.82;3.90;;;;;;;;;;5113703;28;20046;-69
2022/07/05 01:36:25;;;;;;;6.05;3.70;;;;;;;;;;5112798;28;20043;-69
2022/07/05 01:38:52;;;;;;;5.47;4.38;;;;;;;;;;5112856;28;20466;-69
2022/07/05 01:41:20;;;;;;;4.63;4.10;;;;;;;;;;5113833;28;20048;-69
2022/07/05 01:43:46;;;;;;;4.88;4.25;;;;;;;;;;5113228;28;20153;-69
2022/07/05 01:46:12;;;;;;;5.72;4.13;;;;;;;;;;5114228;28;20040;-69
2022/07/05 01:48:40;;;;;;;5.13;4.63;;;;;;;;;;5118322;27;20043;-69
2022/07/05 01:51:27;;;;;;;5.53;4.78;;;;;;;;;;5117366;28;20031;-69
2022/07/05 01:53:55;;;;;;;5.68;4.05;;;;;;;;;;5118001;28;20374;-69
2022/07/05 01:56:21;;;;;;;6.35;4.15;;;;;;;;;;5100031;28;20044;-69
2022/07/05 01:58:47;;;;;;;5.68;4.10;;;;;;;;;;5115977;28;20152;-69
2022/07/05 02:01:13;;;;;;;6.78;4.75;;;;;;;;;;5116547;28;20416;-69
2022/07/05 02:03:40;;;;;;;7.28;4.97;;;;;;;;;;5117437;28;20067;-69
2022/07/05 02:06:08;;;;;;;7.55;4.15;;;;;;;;;;5117329;28;20043;-69
2022/07/05 02:08:35;;;;;;;7.20;5.07;;;;;;;;;;5118365;28;20036;-69
2022/07/05 02:11:01;;;;;;;5.50;4.45;;;;;;;;;;5118033;28;20036;-69
2022/07/05 02:13:28;;;;;;;7.00;4.30;;;;;;;;;;5115786;28;20104;-69
2022/07/05 02:15:54;;;;;;;4.93;4.40;;;;;;;;;;5116651;28;20116;-69
2022/07/05 02:18:20;;;;;;;4.95;4.15;;;;;;;;;;5116405;28;20054;-69
2022/07/05 02:20:46;;;;;;;5.10;4.30;;;;;;;;;;5115992;28;20088;-69
2022/07/05 02:23:14;;;;;;;4.65;3.92;;;;;;;;;;5116064;28;20104;-69
2022/07/05 02:25:41;;;;;;;5.07;3.40;;;;;;;;;;5120927;27;20118;-69
2022/07/05 02:28:08;;;;;;;3.50;3.20;;;;;;;;;;5136842;27;20039;-69
2022/07/05 02:30:34;;;;;;;3.80;3.45;;;;;;;;;;5136468;27;20122;-69
2022/07/05 02:33:00;;;;;;;4.82;3.05;;;;;;;;;;5138200;27;20083;-69
2022/07/05 02:35:26;;;;;;;3.55;3.20;;;;;;;;;;5137161;27;20039;-69
2022/07/05 02:37:52;;;;;;;4.78;3.58;;;;;;;;;;5137865;27;20176;-69
2022/07/05 02:40:18;;;;;;;5.70;3.60;;;;;;;;;;5136877;27;20572;-69
2022/07/05 02:42:44;;;;;;;4.35;3.95;;;;;;;;;;5137503;27;20039;-69
2022/07/05 02:45:10;;;;;;;4.57;4.07;;;;;;;;;;5136343;27;20045;-69
2022/07/05 02:47:37;;;;;;;8.27;4.18;;;;;;;;;;5136586;27;20066;-69
2022/07/05 02:50:05;;;;;;;4.65;3.80;;;;;;;;;;5136685;27;20078;-69
2022/07/05 02:52:31;;;;;;;7.75;4.13;;;;;;;;;;5137449;27;20062;-69
2022/07/05 02:54:58;;;;;;;4.95;3.85;;;;;;;;;;5137537;27;20078;-69
2022/07/05 02:57:26;;;;;;;7.07;3.70;;;;;;;;;;5118002;27;20043;-69
2022/07/05 02:59:55;;;;;;;5.40;4.00;;;;;;;;;;5136644;27;20043;-69
2022/07/05 03:02:22;;;;;;;4.15;3.65;;;;;;;;;;5135712;27;20054;-69
2022/07/05 03:04:48;;;;;;;7.00;3.47;;;;;;;;;;5135268;27;20055;-69
2022/07/05 03:07:14;;;;;;;3.35;3.05;;;;;;;;;;5137517;27;20604;-69
2022/07/05 03:09:41;;;;;;;3.40;3.08;;;;;;;;;;5136762;27;20039;-69
2022/07/05 03:12:08;;;;;;;3.47;2.97;;;;;;;;;;5134942;27;20039;-69
2022/07/05 03:14:35;;;;;;;5.18;3.33;;;;;;;;;;5135696;27;20130;-69
2022/07/05 03:17:02;;;;;;;3.85;3.45;;;;;;;;;;5137111;27;20616;-69
2022/07/05 03:19:29;;;;;;;3.60;3.08;;;;;;;;;;5136479;27;20499;-69
2022/07/05 03:21:56;;;;;;;4.18;3.20;;;;;;;;;;5136073;27;20039;-69
2022/07/05 03:24:22;;;;;;;4.95;3.55;;;;;;;;;;5136683;27;20036;-69
2022/07/05 03:26:49;;;;;;;4.80;3.92;;;;;;;;;;5121222;27;20463;-69
2022/07/05 03:29:15;;;;;;;6.25;4.35;;;;;;;;;;5116429;27;20119;-69
2022/07/05 03:31:42;;;;;;;5.45;4.40;;;;;;;;;;5116109;27;20564;-69
2022/07/05 03:34:08;;;;;;;6.20;4.72;;;;;;;;;;5116085;28;20075;-69
2022/07/05 03:36:35;;;;;;;7.40;5.68;;;;;;;;;;5116238;28;20100;-69
2022/07/05 03:39:01;;;;;;;4.97;4.50;;;;;;;;;;5114526;28;20127;-69
2022/07/05 03:41:28;;;;;;;5.70;4.88;;;;;;;;;;5113945;28;20085;-69
2022/07/05 03:43:54;;;;;;;5.32;4.70;;;;;;;;;;5114127;28;20054;-69
2022/07/05 03:46:20;;;;;;;4.70;4.00;;;;;;;;;;5114409;28;20089;-69
2022/07/05 03:48:47;;;;;;;6.50;4.88;;;;;;;;;;5114009;28;20044;-69
2022/07/05 03:51:13;;;;;;;5.03;4.00;;;;;;;;;;5114941;28;20035;-69
2022/07/05 03:53:45;;;;;;;5.88;4.15;;;;;;;;;;5115516;28;20043;-69
2022/07/05 03:56:13;;;;;;;6.77;3.87;;;;;;;;;;5114973;28;20032;-70
2022/07/05 03:58:41;;;;;;;6.43;4.10;;;;;;;;;;5113787;28;20277;-70
2022/07/05 04:01:08;;;;;;;4.45;4.05;;;;;;;;;;5113974;28;20097;-70
2022/07/05 04:03:34;;;;;;;6.65;4.72;;;;;;;;;;5112707;28;20130;-70
2022/07/05 04:06:01;;;;;;;5.95;4.70;;;;;;;;;;5115169;28;20127;-70
2022/07/05 04:08:29;;;;;;;8.18;5.55;;;;;;;;;;5115128;28;20082;-70
2022/07/05 04:10:55;;;;;;;7.13;5.32;;;;;;;;;;5115003;28;20089;-70
2022/07/05 04:13:21;;;;;;;7.70;5.68;;;;;;;;;;5114297;28;20039;-70
2022/07/05 04:15:47;;;;;;;8.77;5.80;;;;;;;;;;5097237;28;20071;-70
2022/07/05 04:18:14;;;;;;;7.03;6.05;;;;;;;;;;5114583;28;20808;-70
2022/07/05 04:20:40;;;;;;;10.23;6.63;;;;;;;;;;5113645;28;20051;-70
2022/07/05 04:23:08;;;;;;;10.40;6.57;;;;;;;;;;5114108;28;20043;-69
2022/07/05 04:25:34;;;;;;;7.70;6.88;;;;;;;;;;5118559;27;20042;-69
2022/07/05 04:28:01;;;;;;;7.25;6.47;;;;;;;;;;5134791;27;20046;-69
2022/07/05 04:30:27;;;;;;;8.10;6.60;;;;;;;;;;5135518;27;20039;-69
2022/07/05 04:32:53;;;;;;;9.20;6.82;;;;;;;;;;5135862;27;20489;-69
2022/07/05 04:35:19;;;;;;;9.70;7.25;;;;;;;;;;5135101;27;20039;-69
2022/07/05 04:37:47;;;;;;;10.05;7.18;;;;;;;;;;5136054;27;20118;-69
2022/07/05 04:40:17;;;;;;;9.30;7.60;;;;;;;;;;5116772;27;20039;-69
2022/07/05 04:42:43;;;;;;;10.00;7.80;;;;;;;;;;5135559;27;20039;-69
2022/07/05 04:45:09;;;;;;;8.57;7.35;;;;;;;;;;5135742;27;20164;-69
2022/07/05 04:47:36;;;;;;;7.72;6.70;;;;;;;;;;5134930;27;20039;-69
2022/07/05 04:50:05;;;;;;;8.68;7.65;;;;;;;;;;5134696;27;20478;-69
2022/07/05 04:52:31;;;;;;;8.40;6.55;;;;;;;;;;5135292;27;20067;-69
2022/07/05 04:54:58;;;;;;;8.30;7.10;;;;;;;;;;5116607;27;20054;-69
2022/07/05 04:57:24;;;;;;;8.00;6.75;;;;;;;;;;5134009;27;20122;-69
2022/07/05 04:59:51;;;;;;;7.72;6.63;;;;;;;;;;5135637;27;20381;-69
2022/07/05 05:02:17;;;;;;;8.95;7.05;;;;;;;;;;5117152;27;20049;-69
2022/07/05 05:04:44;;;;;;;7.82;6.57;;;;;;;;;;5134390;27;20059;-69
2022/07/05 05:07:11;;;;;;;9.80;7.00;;;;;;;;;;5133957;27;20039;-69
2022/07/05 05:09:37;;;;;;;9.63;6.55;;;;;;;;;;5133519;28;20074;-69
2022/07/05 05:12:03;;;;;;;7.38;6.47;;;;;;;;;;5133128;28;20042;-69
2022/07/05 05:14:31;;;;;;;7.70;6.68;;;;;;;;;;5135219;27;20118;-69
2022/07/05 05:16:59;;;;;;;8.30;6.47;;;;;;;;;;5135160;27;20114;-69
2022/07/05 05:19:25;;;;;;;7.00;6.18;;;;;;;;;;5133082;28;20047;-69
2022/07/05 05:21:51;;;;;;;8.48;6.63;;;;;;;;;;5137820;27;20043;-69
2022/07/05 05:24:18;;;;;;;8.20;6.25;;;;;;;;;;5139036;27;20039;-69
2022/07/05 05:26:44;;;;;;;8.25;6.13;;;;;;;;;;5124924;27;20036;-69
2022/07/05 05:29:10;;;;;;;7.38;5.80;;;;;;;;;;5118734;28;20047;-69
2022/07/05 05:31:36;;;;;;;8.02;6.40;;;;;;;;;;5116812;28;20035;-69
2022/07/05 05:34:02;;;;;;;6.68;5.38;;;;;;;;;;5118224;27;20055;-69
2022/07/05 05:36:28;;;;;;;6.55;5.85;;;;;;;;;;5118266;28;20040;-69
2022/07/05 05:38:55;;;;;;;8.45;5.45;;;;;;;;;;5117317;28;20556;-69
2022/07/05 05:41:21;;;;;;;7.03;5.80;;;;;;;;;;5117449;27;20039;-69
2022/07/05 05:43:48;;;;;;;6.28;5.68;;;;;;;;;;5117560;27;20031;-69
2022/07/05 05:46:15;;;;;;;6.43;5.65;;;;;;;;;;5116560;28;20039;-69
2022/07/05 05:48:41;;;;;;;8.70;5.47;;;;;;;;;;5124151;27;20119;-69
2022/07/05 05:51:08;;;;;;;6.80;5.38;;;;;;;;;;5141059;27;20066;-69
2022/07/05 05:53:35;;;;;;;7.72;5.25;;;;;;;;;;5160168;27;20039;-69
2022/07/05 05:56:02;;;;;;;8.63;4.90;;;;;;;;;;5159695;27;20043;-70
2022/07/05 05:58:29;;;;;;;9.80;5.00;;;;;;;;;;5158504;27;20067;-70
2022/07/05 06:00:56;;;;;;;8.80;5.20;;;;;;;;;;5145152;27;20110;-70
2022/07/05 06:03:23;;;;;;;6.53;4.70;;;;;;;;;;5132020;27;20508;-70
2022/07/05 06:05:49;;;;;;;8.35;5.28;;;;;;;;;;5158769;27;20427;-70
2022/07/05 06:08:16;;;;;;;5.35;4.50;;;;;;;;;;5158454;27;20034;-70
2022/07/05 06:10:42;;;;;;;7.75;5.13;;;;;;;;;;5159398;27;20068;-70
2022/07/05 06:13:09;;;;;;;7.10;5.10;;;;;;;;;;5159561;27;20704;-70
2022/07/05 06:15:38;;;;;;;5.68;3.50;;;;;;;;;;5158836;27;20043;-70
2022/07/05 06:18:05;;;;;;;5.30;3.10;;;;;;;;;;5140269;27;20084;-69
2022/07/05 06:20:34;;;;;;;6.50;3.38;;;;;;;;;;5143030;27;20542;-70
2022/07/05 06:23:02;;;;;;;4.72;3.00;;;;;;;;;;5135237;27;20076;-70
2022/07/05 06:25:30;;;;;;;5.80;3.22;;;;;;;;;;5128086;27;20055;-71
2022/07/05 06:27:59;;;;;;;5.78;3.05;;;;;;;;;;5129279;27;20091;-68
2022/07/05 06:30:26;;;;;;;6.05;3.50;;;;;;;;;;5135906;27;20031;-69
2022/07/05 06:32:55;;;;;;;5.13;3.38;;;;;;;;;;5136414;27;20043;-69
2022/07/05 06:35:21;;;;;;;8.40;3.22;;;;;;;;;;5144273;27;20034;-68
2022/07/05 06:37:51;;;;;;;3.10;2.80;;;;;;;;;;5155541;27;20061;-70
2022/07/05 06:40:19;;;;;;;7.90;2.70;;;;;;;;;;5146294;27;20051;-69
2022/07/05 06:42:46;;;;;;;5.57;3.25;;;;;;;;;;5120090;27;20382;-69
2022/07/05 06:45:12;;;;;;;7.20;2.90;;;;;;;;;;5142618;27;20035;-67
2022/07/05 06:47:38;;;;;;;4.85;2.72;;;;;;;;;;5141348;27;20073;-67
2022/07/05 06:50:05;;;;;;;4.78;2.40;;;;;;;;;;5129413;27;20027;-68
2022/07/05 06:52:32;;;;;;;6.70;3.08;;;;;;;;;;5136631;27;20125;-68
2022/07/05 06:55:00;;;;;;;4.53;2.40;;;;;;;;;;5128248;27;20073;-67
2022/07/05 06:57:28;;;;;;;10.95;3.05;;;;;;;;;;5117414;27;20047;-68
2022/07/05 06:59:56;;;;;;;4.07;2.10;;;;;;;;;;5128085;27;20476;-68
2022/07/05 07:02:23;;;;;;;6.05;2.33;;;;;;;;;;5119484;27;20055;-67
2022/07/05 07:04:52;;;;;;;5.82;2.00;;;;;;;;;;5137172;27;20047;-67
2022/07/05 07:10:03;;;;;;;3.08;1.90;;;;;;;;;;5136644;27;20047;-67
2022/07/05 07:12:30;;;;;;;2.92;1.50;;;;;;;;;;5143680;27;20037;-66
2022/07/05 07:14:56;;;;;;;3.63;1.73;;;;;;;;;;5122390;27;20027;-64
2022/07/05 07:17:23;;;;;;;1.50;1.20;;;;;;;;;;5125775;27;20648;-63
2022/07/05 07:19:49;;;;;;;4.07;1.42;;;;;;;;;;5139983;27;20058;-63
2022/07/05 07:22:15;;;;;;;4.97;1.80;;;;;;;;;;5128833;27;20039;-63
2022/07/05 07:24:41;;;;;;;4.32;1.52;;;;;;;;;;5142937;27;20126;-64
2022/07/05 07:27:09;;;;;;;5.68;1.33;;;;;;;;;;5136558;27;20091;-63
2022/07/05 07:29:36;;;;;;;2.88;1.30;;;;;;;;;;5126521;27;20042;-62
2022/07/05 07:32:02;;;;;;;5.00;1.35;;;;;;;;;;5133275;27;20057;-63
2022/07/05 07:34:28;;;;;;;2.88;1.17;;;;;;;;;;5124995;27;20083;-63
2022/07/05 07:36:55;;;;;;;2.72;0.98;;;;;;;;;;5137878;27;20031;-64
2022/07/05 07:39:21;;;;;;;4.00;1.33;;;;;;;;;;5125217;27;20098;-64
2022/07/05 07:41:47;;;;;;;2.78;1.27;;;;;;;;;;5128923;27;20134;-64
2022/07/05 07:44:13;;;;;;;3.75;1.20;;;;;;;;;;5143117;27;20043;-64
2022/07/05 07:46:39;;;;;;;2.88;1.20;;;;;;;;;;5134463;27;20035;-63
2022/07/05 07:49:07;;;;;;;6.93;2.05;;;;;;;;;;5135182;27;20042;-64
2022/07/05 07:51:33;;;;;;;2.72;1.38;;;;;;;;;;5138673;27;20038;-63
2022/07/05 07:53:59;;;;;;;5.95;1.50;;;;;;;;;;5124043;27;20043;-64
2022/07/05 07:56:25;;;;;;;4.47;1.27;;;;;;;;;;5139289;27;20470;-64
2022/07/05 07:58:51;;;;;;;5.65;1.55;;;;;;;;;;5132323;27;20043;-63
2022/07/05 08:01:17;;;;;;;5.05;1.30;;;;;;;;;;5145467;27;20043;-63
2022/07/05 08:03:44;;;;;;;5.43;1.75;;;;;;;;;;5134187;27;20053;-62
2022/07/05 08:06:10;;;;;;;3.15;1.00;;;;;;;;;;5126719;27;20042;-63
2022/07/05 08:08:37;;;;;;;5.15;0.95;;;;;;;;;;5130392;27;20117;-64
2022/07/05 08:11:03;;;;;;;5.22;1.10;;;;;;;;;;5145583;27;20039;-63
2022/07/05 08:13:29;;;;;;;3.55;0.82;;;;;;;;;;5132160;27;20501;-63
2022/07/05 08:15:56;;;;;;;3.25;1.02;;;;;;;;;;5125045;27;20038;-65
2022/07/05 08:23:51;;;;;;;2.75;0.95;;;;;;;;;;5122209;27;20043;-65
2022/07/05 08:26:17;;;;;;;3.60;1.15;;;;;;;;;;5125682;27;20060;-66
2022/07/05 08:28:44;;;;;;;3.70;1.00;;;;;;;;;;5134674;27;20039;-65
2022/07/05 08:31:11;;;;;;;3.85;0.95;;;;;;;;;;5135872;27;20038;-65
2022/07/05 08:33:37;;;;;;;3.28;0.90;;;;;;;;;;5119179;27;20036;-65
2022/07/05 08:36:03;;;;;;;4.60;0.65;;;;;;;;;;5138970;27;20123;-66
2022/07/05 08:38:30;;;;;;;2.85;0.90;;;;;;;;;;5136601;27;20072;-64
2022/07/05 08:40:57;;;;;;;6.53;0.98;;;;;;;;;;5127225;27;20035;-64
2022/07/05 08:43:24;;;;;;;3.13;0.70;;;;;;;;;;5143326;27;20031;-65
2022/07/05 08:45:53;;;;;;;3.05;0.65;;;;;;;;;;5125714;27;20514;-66
2022/07/05 08:48:20;;;;;;;2.38;0.70;;;;;;;;;;5140070;27;20054;-64
2022/07/05 08:50:50;;;;;;;5.47;0.77;;;;;;;;;;5124647;27;20059;-65
2022/07/05 08:53:18;;;;;;;2.92;0.77;;;;;;;;;;5125893;27;20149;-65
2022/07/05 08:55:45;;;;;;;3.00;0.77;;;;;;;;;;5125524;27;20062;-64
2022/07/05 08:58:11;;;;;;;3.38;1.02;;;;;;;;;;5150798;27;20145;-63
2022/07/05 09:00:37;;;;;;;3.72;1.00;;;;;;;;;;5151482;27;20419;-64
2022/07/05 09:03:04;;;;;;;3.08;0.85;;;;;;;;;;5130408;27;20051;-64
2022/07/05 09:05:35;;;;;;;2.13;0.70;;;;;;;;;;5128861;27;20039;-65
2022/07/05 09:08:01;;;;;;;3.10;0.60;;;;;;;;;;5120799;27;20091;-65
2022/07/05 09:10:30;;;;;;;2.28;0.73;;;;;;;;;;5133278;27;20038;-64
2022/07/05 09:12:57;;;;;;;4.20;0.90;;;;;;;;;;5112835;27;20088;-64
2022/07/05 09:15:24;;;;;;;2.90;0.80;;;;;;;;;;5103244;28;20507;-64
2022/07/05 09:17:50;;;;;;;3.88;1.20;;;;;;;;;;5127064;27;20073;-64
2022/07/05 09:20:17;;;;;;;4.85;1.42;;;;;;;;;;5137766;27;20516;-64
2022/07/05 09:22:47;;;;;;;7.85;0.90;;;;;;;;;;5126926;27;20061;-64
2022/07/05 09:25:14;;;;;;;6.43;0.88;;;;;;;;;;5146737;27;20068;-64
2022/07/05 09:27:52;;;;;;;2.78;0.93;;;;;;;;;;5146308;27;20039;-64
2022/07/05 09:30:44;;;;;;;1.23;0.80;;;;;;;;;;5129376;27;20036;-65
2022/07/05 09:33:16;;;;;;;4.50;0.90;;;;;;;;;;5134665;27;20107;-65
2022/07/05 09:35:44;;;;;;;4.55;0.80;;;;;;;;;;5125326;27;20612;-65
2022/07/05 09:38:20;;;;;;;3.25;0.90;;;;;;;;;;5103595;27;20063;-65
2022/07/05 09:40:48;;;;;;;2.13;0.90;;;;;;;;;;5123113;27;20126;-64
2022/07/05 09:43:15;;;;;;;3.17;0.80;;;;;;;;;;5122257;27;20040;-66
2022/07/05 09:45:51;;;;;;;3.42;1.02;;;;;;;;;;5122647;27;20071;-67
2022/07/05 09:48:17;;;;;;;3.50;0.70;;;;;;;;;;5114270;27;20042;-63
2022/07/05 09:50:43;;;;;;;3.63;0.90;;;;;;;;;;5109907;27;20035;-64
2022/07/05 09:53:11;;;;;;;3.70;1.10;;;;;;;;;;5111174;27;20092;-64
2022/07/05 09:55:40;;;;;;;2.50;0.80;;;;;;;;;;5128636;27;20047;-65
2022/07/05 09:58:06;;;;;;;2.35;0.82;;;;;;;;;;5127362;27;20061;-65
2022/07/05 10:00:33;;;;;;;6.35;1.00;;;;;;;;;;5132432;27;20051;-64
2022/07/05 10:03:02;;;;;;;5.18;1.10;;;;;;;;;;5124050;27;20056;-65
2022/07/05 10:05:32;;;;;;;3.90;0.93;;;;;;;;;;5125323;27;20571;-65
2022/07/05 10:08:02;;;;;;;5.40;1.17;;;;;;;;;;5120313;27;20044;-64
2022/07/05 10:10:32;;;;;;;3.22;0.88;;;;;;;;;;5126534;27;20572;-69
2022/07/05 10:13:06;;;;;;;2.88;0.80;;;;;;;;;;5140501;27;20027;-63
2022/07/05 10:15:34;;;;;;;2.65;0.90;;;;;;;;;;5132188;27;20065;-65
2022/07/05 10:18:10;;;;;;;3.00;0.82;;;;;;;;;;5138284;27;20039;-63
2022/07/05 10:20:36;;;;;;;3.50;1.15;;;;;;;;;;5136234;27;20042;-63
2022/07/05 10:23:03;;;;;;;3.13;1.00;;;;;;;;;;5122139;27;20042;-64
2022/07/05 10:25:29;;;;;;;2.20;1.00;;;;;;;;;;5125899;27;20039;-65
2022/07/05 10:27:55;;;;;;;2.13;0.95;;;;;;;;;;5128950;27;20526;-64
2022/07/05 10:30:23;;;;;;;2.33;0.90;;;;;;;;;;5123919;27;20138;-64
2022/07/05 10:32:49;;;;;;;2.42;0.90;;;;;;;;;;5135504;27;20039;-65
2022/07/05 10:35:17;;;;;;;3.88;1.00;;;;;;;;;;5131283;27;20078;-65
2022/07/05 10:37:43;;;;;;;4.65;1.00;;;;;;;;;;5123823;27;20089;-66
2022/07/05 10:40:09;;;;;;;5.68;1.60;;;;;;;;;;5137184;27;20082;-67
2022/07/05 10:42:44;;;;;;;4.80;1.20;;;;;;;;;;5147566;27;20039;-65
2022/07/05 10:45:27;;;;;;;6.80;1.00;;;;;;;;;;5124011;27;20058;-66
2022/07/05 10:47:52;;;;;;;;;;;;;;;;;;5120492;27;20063;-65
2022/07/05 10:50:19;;;;;;;1.75;0.80;;;;;;;;;;5142215;27;20385;-66
2022/07/05 10:53:01;;;;;;;4.43;1.05;;;;;;;;;;5154394;27;20039;-66
2022/07/05 10:55:27;;;;;;;2.25;1.10;;;;;;;;;;5154230;27;20038;-66
2022/07/05 10:58:13;;;;;;;4.60;1.20;;;;;;;;;;5137089;27;20047;-66
2022/07/05 11:00:39;;;;;;;2.88;0.98;;;;;;;;;;5102592;27;20050;-65
2022/07/05 11:03:24;;;;;;;6.72;1.40;;;;;;;;;;5148082;27;20526;-65
2022/07/05 11:05:51;;;;;;;3.95;1.13;;;;;;;;;;5141199;27;20524;-66
2022/07/05 11:08:17;;;;;;;8.82;1.50;;;;;;;;;;5136862;27;20035;-65
2022/07/05 11:11:03;;;;;;;3.88;1.05;;;;;;;;;;5126125;27;20085;-65
2022/07/05 11:13:40;;;;;;;3.03;1.13;;;;;;;;;;5116128;27;20069;-65
2022/07/05 11:16:29;;;;;;;3.70;1.20;;;;;;;;;;5133394;27;20057;-64
2022/07/05 11:19:09;;;;;;;4.18;1.08;;;;;;;;;;5124932;27;20046;-66
2022/07/05 11:21:36;;;;;;;5.93;1.27;;;;;;;;;;5127569;27;20023;-66
2022/07/05 11:24:23;;;;;;;3.00;1.13;;;;;;;;;;5113546;28;20482;-66
2022/07/05 11:26:52;;;;;;;4.50;1.10;;;;;;;;;;5128496;27;20083;-66
2022/07/05 11:29:37;;;;;;;5.03;1.02;;;;;;;;;;5135692;27;20047;-66
2022/07/05 11:32:09;;;;;;;2.50;0.98;;;;;;;;;;5141546;27;20039;-66
2022/07/05 11:34:35;;;;;;;;;;;;;;;;;;5135078;27;20039;-66
2022/07/05 11:37:18;;;;;;;2.78;0.80;;;;;;;;;;5119534;27;19923;-66
2022/07/05 11:39:45;;;;;;;5.22;0.90;;;;;;;;;;5137623;27;20047;-66
2022/07/05 11:42:19;;;;;;;4.78;1.02;;;;;;;;;;5125417;27;20389;-67
2022/07/05 11:44:49;;;;;;;2.55;0.90;;;;;;;;;;5114144;27;20366;-64
2022/07/05 11:47:16;;;;;;;4.53;1.15;;;;;;;;;;5134684;27;20041;-64
2022/07/05 11:50:04;;;;;;;3.05;1.00;;;;;;;;;;5135149;27;20065;-64
2022/07/05 11:52:30;;;;;;;4.18;1.38;;;;;;;;;;5132572;27;20137;-65
2022/07/05 11:54:57;;;;;;;4.65;0.95;;;;;;;;;;5131863;27;20043;-64
2022/07/05 11:57:24;;;;;;;1.85;0.68;;;;;;;;;;5125461;27;20121;-64
2022/07/05 11:59:51;;;;;;;6.50;0.93;;;;;;;;;;5120390;27;20381;-64
2022/07/05 12:02:17;;;;;;;2.53;0.80;;;;;;;;;;5125536;27;20035;-65
2022/07/05 12:04:48;;;;;;;3.83;0.93;;;;;;;;;;5121960;27;20057;-64
2022/07/05 12:07:33;;;;;;;1.08;0.50;;;;;;;;;;5145328;27;20031;-65
2022/07/05 12:12:47;;;;;;;2.95;0.63;;;;;;;;;;5119412;27;20039;-65
2022/07/05 12:15:17;;;;;;;3.30;0.85;;;;;;;;;;5134137;27;20165;-64
2022/07/05 12:17:47;;;;;;;2.53;0.57;;;;;;;;;;5138321;27;20511;-65
2022/07/05 12:20:15;;;;;;;2.00;0.60;;;;;;;;;;5145381;27;20062;-65
2022/07/05 12:22:42;;;;;;;1.10;0.50;;;;;;;;;;5119529;27;20039;-64
2022/07/05 12:25:12;;;;;;;2.55;0.50;;;;;;;;;;5115304;27;20047;-64
2022/07/05 12:27:39;;;;;;;3.80;0.52;;;;;;;;;;5133690;27;20487;-66
2022/07/05 12:30:05;;;;;;;1.67;0.60;;;;;;;;;;5130296;27;20401;-66
2022/07/05 12:32:32;;;;;;;0.73;0.40;;;;;;;;;;5119180;27;20039;-65
2022/07/05 12:35:02;;;;;;;0.85;0.40;;;;;;;;;;5136583;27;20646;-65
2022/07/05 12:37:29;;;;;;;1.95;0.43;;;;;;;;;;5126747;27;20108;-65
2022/07/05 12:40:04;;;;;;;2.30;0.40;;;;;;;;;;5121413;27;20035;-66
2022/07/05 12:42:35;;;;;;;5.68;0.63;;;;;;;;;;5115865;27;20128;-65
2022/07/05 12:45:12;;;;;;;2.15;0.57;;;;;;;;;;5131517;27;20045;-66
2022/07/05 12:47:53;;;;;;;2.22;0.68;;;;;;;;;;5135277;27;20525;-68
2022/07/05 12:50:19;;;;;;;2.30;0.73;;;;;;;;;;5132334;27;20039;-66
2022/07/05 12:53:01;;;;;;;3.92;0.73;;;;;;;;;;5133338;27;20053;-67
2022/07/05 12:58:12;;;;;;;3.22;0.50;;;;;;;;;;5122866;27;20296;-65
2022/07/05 13:00:39;;;;;;;1.75;0.77;;;;;;;;;;5130520;27;20046;-67
2022/07/05 13:03:05;;;;;;;5.88;0.90;;;;;;;;;;5121961;27;20082;-67
2022/07/05 13:05:31;;;;;;;6.78;0.75;;;;;;;;;;5124849;27;20075;-66
2022/07/05 13:07:58;;;;;;;3.05;0.70;;;;;;;;;;5120871;27;20114;-65
2022/07/05 13:10:25;;;;;;;5.13;1.05;;;;;;;;;;5126840;27;20027;-68
2022/07/05 13:12:51;;;;;;;4.82;0.88;;;;;;;;;;5118449;28;20047;-67
2022/07/05 13:15:18;;;;;;;2.80;0.80;;;;;;;;;;5119192;27;20505;-65
2022/07/05 13:17:44;;;;;;;3.83;0.85;;;;;;;;;;5120947;27;20042;-68
2022/07/05 13:20:14;;;;;;;3.45;0.60;;;;;;;;;;5131942;27;20075;-66
2022/07/05 13:22:39;;;;;;;1.30;0.70;;;;;;;;;;5134010;27;20424;-65
2022/07/05 13:25:06;;;;;;;2.88;0.90;;;;;;;;;;5127822;27;20069;-67
2022/07/05 13:27:32;;;;;;;2.25;0.63;;;;;;;;;;5118860;27;20035;-68
2022/07/05 13:29:58;;;;;;;3.53;0.90;;;;;;;;;;5129866;27;20039;-66
2022/07/05 13:32:24;;;;;;;3.13;0.68;;;;;;;;;;5112404;28;20066;-67
2022/07/05 13:34:51;;;;;;;1.38;0.50;;;;;;;;;;5135378;27;20038;-67
2022/07/05 13:37:17;;;;;;;3.72;0.50;;;;;;;;;;5155097;27;20039;-69
2022/07/05 13:39:43;;;;;;;1.77;0.40;;;;;;;;;;5136465;27;20035;-68
2022/07/05 13:42:11;;;;;;;1.58;0.60;;;;;;;;;;5136919;27;20385;-67
2022/07/05 13:44:37;;;;;;;1.55;0.60;;;;;;;;;;5127055;27;20124;-69
2022/07/05 13:47:04;;;;;;;1.27;0.73;;;;;;;;;;5126061;27;20428;-68
2022/07/05 13:49:30;;;;;;;3.92;0.55;;;;;;;;;;5126361;27;20039;-68
2022/07/05 13:51:57;;;;;;;2.72;0.60;;;;;;;;;;5130769;27;20474;-67
2022/07/05 13:54:23;;;;;;;4.13;0.60;;;;;;;;;;5128672;27;20045;-68
2022/07/05 13:56:49;;;;;;;2.30;0.52;;;;;;;;;;5127038;27;20042;-68
2022/07/05 13:59:15;;;;;;;2.42;0.70;;;;;;;;;;5128227;27;20501;-67
2022/07/05 14:01:42;;;;;;;1.42;0.60;;;;;;;;;;5129603;27;20040;-69
2022/07/05 14:04:08;;;;;;;1.52;0.45;;;;;;;;;;5123400;27;20126;-67
2022/07/05 14:06:36;;;;;;;4.35;0.70;;;;;;;;;;5128337;27;20027;-69
2022/07/05 14:09:02;;;;;;;2.17;0.55;;;;;;;;;;5127166;27;20062;-68
2022/07/05 14:11:28;;;;;;;2.95;0.88;;;;;;;;;;5127812;27;20046;-68
2022/07/05 14:13:55;;;;;;;4.10;0.60;;;;;;;;;;5129022;27;20070;-68
2022/07/05 14:16:21;;;;;;;3.13;0.75;;;;;;;;;;5127708;27;20036;-68
2022/07/05 14:18:49;;;;;;;1.52;0.80;;;;;;;;;;5135631;27;20045;-67
2022/07/05 14:21:17;;;;;;;3.20;0.57;;;;;;;;;;5130290;27;20063;-67
2022/07/05 14:23:44;;;;;;;1.92;0.80;;;;;;;;;;5127533;27;20381;-69
2022/07/05 14:26:11;;;;;;;2.72;0.65;;;;;;;;;;5126939;27;20043;-69
2022/07/05 14:28:37;;;;;;;2.55;0.60;;;;;;;;;;5128588;27;20527;-68
2022/07/05 14:31:03;;;;;;;1.80;0.57;;;;;;;;;;5147115;27;20035;-69
2022/07/05 14:33:29;;;;;;;1.38;0.60;;;;;;;;;;5156142;27;20473;-69
2022/07/05 14:35:55;;;;;;;1.98;0.55;;;;;;;;;;5155516;27;20047;-68
2022/07/05 14:38:21;;;;;;;3.22;0.70;;;;;;;;;;5156210;27;20087;-67
2022/07/05 14:40:47;;;;;;;3.13;0.80;;;;;;;;;;5155050;27;20066;-67
2022/07/05 14:43:14;;;;;;;2.25;0.60;;;;;;;;;;5135242;27;20031;-70
2022/07/05 14:45:40;;;;;;;3.47;1.10;;;;;;;;;;5115124;27;20040;-69
2022/07/05 14:48:06;;;;;;;3.78;0.93;;;;;;;;;;5157195;27;20042;-66
2022/07/05 14:50:33;;;;;;;2.20;1.00;;;;;;;;;;5158805;27;20798;-67
2022/07/05 14:53:05;;;;;;;3.95;0.85;;;;;;;;;;5155715;27;20052;-68
2022/07/05 14:55:32;;;;;;;3.33;0.80;;;;;;;;;;5142092;27;20062;-69
2022/07/05 14:57:58;;;;;;;2.97;0.70;;;;;;;;;;5130760;27;20043;-69
2022/07/05 15:00:24;;;;;;;3.13;0.68;;;;;;;;;;5155447;27;20043;-69